createdAt,value
2023-02-15T00:00:09.133Z,20.87
2023-02-15T00:02:36.033Z,21.27
2023-02-15T00:05:03.155Z,22.60
2023-02-15T00:07:30.048Z,21.77
2023-02-15T00:09:56.975Z,19.73
2023-02-15T00:12:23.933Z,22.47
2023-02-15T00:14:50.849Z,21.17
2023-02-15T00:17:17.893Z,22.23
2023-02-15T00:19:44.845Z,23.37
2023-02-15T00:22:11.697Z,21.90
2023-02-15T00:24:38.695Z,20.00
2023-02-15T00:27:05.615Z,20.67
2023-02-15T00:29:32.662Z,21.80
2023-02-15T00:31:59.517Z,21.93
2023-02-15T00:34:28.313Z,21.87
2023-02-15T00:36:55.416Z,19.63
2023-02-15T00:39:22.500Z,22.77
2023-02-15T00:41:49.423Z,21.30
2023-02-15T00:44:16.646Z,23.90
2023-02-15T00:46:43.645Z,22.93
2023-02-15T00:49:11.629Z,25.60
2023-02-15T00:51:39.142Z,24.47
2023-02-15T00:54:06.616Z,24.20
2023-02-15T00:56:33.732Z,24.17
2023-02-15T00:59:00.696Z,23.00
2023-02-15T01:01:27.778Z,22.60
2023-02-15T01:03:54.763Z,24.80
2023-02-15T01:06:21.847Z,24.27
2023-02-15T01:08:49.044Z,23.17
2023-02-15T01:11:23.081Z,25.03
2023-02-15T01:13:56.916Z,22.70
2023-02-15T01:16:26.621Z,23.27
2023-02-15T01:18:55.510Z,22.97
2023-02-15T01:21:25.323Z,25.60
2023-02-15T01:23:52.486Z,25.00
2023-02-15T01:26:21.105Z,23.93
2023-02-15T01:28:48.296Z,26.50
2023-02-15T01:31:19.922Z,24.30
2023-02-15T01:33:48.176Z,25.50
2023-02-15T01:36:15.716Z,28.73
2023-02-15T01:38:42.812Z,29.10
2023-02-15T01:41:25.537Z,26.13
2023-02-15T01:44:02.158Z,26.50
2023-02-15T01:46:39.049Z,24.57
2023-02-15T01:49:16.541Z,25.10
2023-02-15T01:51:47.453Z,24.50
2023-02-15T01:54:30.977Z,25.40
2023-02-15T01:57:04.607Z,26.90
2023-02-15T01:59:34.862Z,26.37
2023-02-15T02:02:03.447Z,24.40
2023-02-15T02:04:43.027Z,26.40
2023-02-15T02:07:11.002Z,26.90
2023-02-15T02:09:38.370Z,27.27
2023-02-15T02:12:05.939Z,29.47
2023-02-15T02:14:33.034Z,27.00
2023-02-15T02:17:43.746Z,26.87
2023-02-15T02:20:54.905Z,26.43
2023-02-15T02:23:38.289Z,25.17
2023-02-15T02:26:47.543Z,27.30
2023-02-15T02:30:10.947Z,28.23
2023-02-15T02:32:54.860Z,28.33
2023-02-15T02:35:48.207Z,28.97
2023-02-15T02:38:39.789Z,28.40
2023-02-15T02:41:24.055Z,29.10
2023-02-15T02:44:05.380Z,30.50
2023-02-15T02:47:19.787Z,28.93
2023-02-15T02:49:46.663Z,28.83
2023-02-15T02:52:43.662Z,30.60
2023-02-15T02:55:22.242Z,31.07
2023-02-15T02:58:17.578Z,30.97
2023-02-15T03:00:57.746Z,32.40
2023-02-15T03:03:44.087Z,33.87
2023-02-15T03:06:19.095Z,34.43
2023-02-15T03:08:58.215Z,33.73
2023-02-15T03:11:25.350Z,34.47
2023-02-15T03:13:52.521Z,31.40
2023-02-15T03:16:26.860Z,30.90
2023-02-15T03:19:04.255Z,31.90
2023-02-15T03:21:58.375Z,31.43
2023-02-15T03:24:34.608Z,31.90
2023-02-15T03:27:08.660Z,31.57
2023-02-15T03:29:36.939Z,28.90
2023-02-15T03:32:08.544Z,30.40
2023-02-15T03:34:35.683Z,28.77
2023-02-15T03:37:16.871Z,28.20
2023-02-15T03:39:53.871Z,30.60
2023-02-15T03:42:35.009Z,29.83
2023-02-15T03:45:17.087Z,30.00
2023-02-15T03:47:48.276Z,30.30
2023-02-15T03:50:38.676Z,31.00
2023-02-15T03:53:10.930Z,28.40
2023-02-15T03:55:38.148Z,30.13
2023-02-15T03:58:23.777Z,29.57
2023-02-15T04:01:25.255Z,29.97
2023-02-15T04:04:07.392Z,29.57
2023-02-15T04:06:34.444Z,28.50
2023-02-15T04:09:19.929Z,30.70
2023-02-15T04:11:46.858Z,32.30
2023-02-15T04:14:32.145Z,31.83
2023-02-15T04:16:59.009Z,31.07
2023-02-15T04:19:44.555Z,30.90
2023-02-15T04:22:30.026Z,29.57
2023-02-15T04:25:15.107Z,29.80
2023-02-15T04:27:49.342Z,31.20
2023-02-15T04:30:19.296Z,30.60
2023-02-15T04:32:46.692Z,31.83
2023-02-15T04:35:14.737Z,30.40
2023-02-15T04:37:42.968Z,29.50
2023-02-15T04:40:14.625Z,30.60
2023-02-15T04:42:41.669Z,29.37
2023-02-15T04:45:08.843Z,32.70
2023-02-15T04:47:35.955Z,30.90
2023-02-15T04:50:03.733Z,29.40
2023-02-15T04:52:30.673Z,27.93
2023-02-15T04:54:57.579Z,29.63
2023-02-15T04:57:24.453Z,29.60
2023-02-15T04:59:51.360Z,30.87
2023-02-15T05:02:18.339Z,29.37
2023-02-15T05:04:45.427Z,28.90
2023-02-15T05:07:12.383Z,29.90
2023-02-15T05:09:39.275Z,29.63
2023-02-15T05:12:06.491Z,27.67
2023-02-15T05:14:33.357Z,28.40
2023-02-15T05:17:02.456Z,29.10
2023-02-15T05:19:29.343Z,28.90
2023-02-15T05:21:56.647Z,31.17
2023-02-15T05:24:41.986Z,26.77
2023-02-15T05:27:32.803Z,29.00
2023-02-15T05:29:59.836Z,27.77
2023-02-15T05:32:27.198Z,27.80
2023-02-15T05:34:54.156Z,31.30
2023-02-15T05:37:21.048Z,28.90
2023-02-15T05:39:47.958Z,30.00
2023-02-15T05:42:14.860Z,30.10
2023-02-15T05:44:41.844Z,27.37
2023-02-15T05:47:08.753Z,30.33
2023-02-15T05:49:35.746Z,30.90
2023-02-15T05:52:03.938Z,30.00
2023-02-15T05:54:30.981Z,29.93
2023-02-15T05:56:58.088Z,31.67
2023-02-15T05:59:25.001Z,28.17
2023-02-15T06:01:51.976Z,31.47
2023-02-15T06:04:19.001Z,30.50
2023-02-15T06:06:45.954Z,31.20
2023-02-15T06:09:14.171Z,30.60
2023-02-15T06:11:41.437Z,30.87
2023-02-15T06:14:08.276Z,31.00
2023-02-15T06:16:35.267Z,30.07
2023-02-15T06:19:02.865Z,30.60
2023-02-15T06:21:31.397Z,31.23
2023-02-15T06:23:58.621Z,29.47
2023-02-15T06:26:25.651Z,33.43
2023-02-15T06:28:52.560Z,30.60
2023-02-15T06:31:19.539Z,30.60
2023-02-15T06:33:46.577Z,29.17
2023-02-15T06:36:13.583Z,30.03
2023-02-15T06:38:40.566Z,30.50
2023-02-15T06:41:07.593Z,32.23
2023-02-15T06:43:35.171Z,32.13
2023-02-15T06:46:02.457Z,31.63
2023-02-15T06:48:29.589Z,31.30
2023-02-15T06:50:56.591Z,30.50
2023-02-15T06:53:23.497Z,30.50
2023-02-15T06:55:50.460Z,32.00
2023-02-15T06:58:17.355Z,29.53
2023-02-15T07:00:44.283Z,29.47
2023-02-15T07:03:14.211Z,31.63
2023-02-15T07:05:41.105Z,31.47
2023-02-15T07:08:08.065Z,29.03
2023-02-15T07:10:34.950Z,27.60
2023-02-15T07:13:01.836Z,28.83
2023-02-15T07:15:28.837Z,26.77
2023-02-15T07:17:55.735Z,26.20
2023-02-15T07:20:24.412Z,26.57
2023-02-15T07:22:51.524Z,28.67
2023-02-15T07:25:19.230Z,28.50
2023-02-15T07:27:46.373Z,29.07
2023-02-15T07:30:17.394Z,24.90
2023-02-15T07:33:05.263Z,26.83
2023-02-15T07:35:33.583Z,25.23
2023-02-15T07:38:01.181Z,27.33
2023-02-15T07:40:28.253Z,25.57
2023-02-15T07:42:59.934Z,26.77
2023-02-15T07:45:26.992Z,24.90
2023-02-15T07:47:53.927Z,24.73
2023-02-15T07:50:20.836Z,27.00
2023-02-15T07:52:47.840Z,26.30
2023-02-15T07:55:14.972Z,26.87
2023-02-15T07:57:47.103Z,24.67
2023-02-15T08:00:16.464Z,25.97
2023-02-15T08:02:43.950Z,26.70
2023-02-15T08:05:10.997Z,27.23
2023-02-15T08:07:37.945Z,26.23
2023-02-15T08:10:05.594Z,26.17
2023-02-15T08:12:32.566Z,25.03
2023-02-15T08:14:59.598Z,26.17
2023-02-15T08:17:26.727Z,25.27
2023-02-15T08:19:53.656Z,25.40
2023-02-15T08:22:20.647Z,25.83
2023-02-15T08:24:47.875Z,25.83
2023-02-15T08:27:14.767Z,25.50
2023-02-15T08:29:43.070Z,26.70
2023-02-15T08:32:13.176Z,23.97
2023-02-15T08:34:42.851Z,21.57
2023-02-15T08:37:10.379Z,21.43
2023-02-15T08:39:37.737Z,22.13
2023-02-15T08:42:04.924Z,21.87
2023-02-15T08:44:31.950Z,28.07
2023-02-15T08:47:04.483Z,22.33
2023-02-15T08:49:31.931Z,23.30
2023-02-15T08:51:59.007Z,24.67
2023-02-15T08:54:26.027Z,23.50
2023-02-15T08:56:53.208Z,23.67
2023-02-15T08:59:23.551Z,25.07
2023-02-15T09:01:52.859Z,23.67
2023-02-15T09:04:21.072Z,22.70
2023-02-15T09:06:50.738Z,23.27
2023-02-15T09:09:19.520Z,22.17
2023-02-15T09:11:53.041Z,21.10
2023-02-15T09:14:24.413Z,21.77
2023-02-15T09:16:53.916Z,23.17
2023-02-15T09:19:23.078Z,22.17
2023-02-15T09:21:50.245Z,21.07
2023-02-15T09:24:18.957Z,21.63
2023-02-15T09:26:48.769Z,22.27
2023-02-15T09:29:18.027Z,23.30
2023-02-15T09:31:50.950Z,21.57
2023-02-15T09:34:21.409Z,22.90
2023-02-15T09:36:49.553Z,22.80
2023-02-15T09:39:25.788Z,22.43
2023-02-15T09:42:28.919Z,21.83
2023-02-15T09:45:28.178Z,21.63
2023-02-15T09:48:16.747Z,21.07
2023-02-15T09:51:08.572Z,22.80
2023-02-15T09:54:06.578Z,22.50
2023-02-15T09:56:40.478Z,24.07
2023-02-15T09:59:34.317Z,22.37
2023-02-15T10:02:40.388Z,21.67
2023-02-15T10:05:45.343Z,21.33
2023-02-15T10:08:57.981Z,21.67
2023-02-15T10:12:09.391Z,22.90
2023-02-15T10:14:57.165Z,23.03
2023-02-15T10:18:00.050Z,21.90
2023-02-15T10:20:35.341Z,21.33
2023-02-15T10:23:52.245Z,21.57
2023-02-15T10:26:24.100Z,22.63
2023-02-15T10:28:52.340Z,22.00
2023-02-15T10:31:33.418Z,23.03
2023-02-15T10:34:21.631Z,21.80
2023-02-15T10:37:31.908Z,20.37
2023-02-15T10:40:26.445Z,23.70
2023-02-15T10:43:18.187Z,22.80
2023-02-15T10:46:15.810Z,20.27
2023-02-15T10:49:08.789Z,20.80
2023-02-15T10:52:31.820Z,22.83
2023-02-15T10:55:22.556Z,22.57
2023-02-15T10:58:40.136Z,22.03
2023-02-15T11:01:28.648Z,23.70
2023-02-15T11:04:23.258Z,23.03
2023-02-15T11:06:56.535Z,23.03
2023-02-15T11:09:34.015Z,21.43
2023-02-15T11:12:02.405Z,23.80
2023-02-15T11:14:49.293Z,22.27
2023-02-15T11:17:23.433Z,22.17
2023-02-15T11:20:05.939Z,22.73
2023-02-15T11:22:34.991Z,22.83
2023-02-15T11:25:05.829Z,24.30
2023-02-15T11:27:34.199Z,23.43
2023-02-15T11:30:14.811Z,22.43
2023-02-15T11:32:46.415Z,25.33
2023-02-15T11:35:13.369Z,22.33
2023-02-15T11:38:07.515Z,23.90
2023-02-15T11:40:50.958Z,23.67
2023-02-15T11:43:27.490Z,22.40
2023-02-15T11:45:55.531Z,23.17
2023-02-15T11:48:23.024Z,23.20
2023-02-15T11:50:50.065Z,25.70
2023-02-15T11:53:30.332Z,24.70
2023-02-15T11:55:57.527Z,21.93
2023-02-15T11:58:50.014Z,24.00
2023-02-15T12:01:24.358Z,22.53
2023-02-15T12:04:31.081Z,22.37
2023-02-15T12:07:27.010Z,22.90
2023-02-15T12:10:08.405Z,22.33
2023-02-15T12:12:37.166Z,22.20
2023-02-15T12:15:11.110Z,22.10
2023-02-15T12:17:55.580Z,23.00
2023-02-15T12:20:26.937Z,19.10
2023-02-15T12:23:04.923Z,18.23
2023-02-15T12:25:55.209Z,24.27
2023-02-15T12:28:35.749Z,24.57
2023-02-15T12:31:24.344Z,19.73
2023-02-15T12:33:55.152Z,19.77
2023-02-15T12:36:28.943Z,24.00
2023-02-15T12:39:13.961Z,21.00
2023-02-15T12:42:00.428Z,21.73
2023-02-15T12:44:34.878Z,22.67
2023-02-15T12:47:17.183Z,21.63
2023-02-15T12:49:48.380Z,21.50
2023-02-15T12:52:21.497Z,22.40
2023-02-15T12:55:05.976Z,21.53
2023-02-15T12:58:07.529Z,21.17
2023-02-15T13:00:55.325Z,22.10
2023-02-15T13:03:35.621Z,22.13
2023-02-15T13:06:28.842Z,21.20
2023-02-15T13:09:21.509Z,19.70
2023-02-15T13:13:15.192Z,20.70
2023-02-15T13:19:20.257Z,18.90
2023-02-15T13:22:02.688Z,21.73
2023-02-15T13:27:58.833Z,21.20
2023-02-15T13:31:26.053Z,22.20
2023-02-15T13:34:22.530Z,20.07
2023-02-15T13:37:32.200Z,19.77
2023-02-15T13:40:40.891Z,20.03
2023-02-15T13:43:51.943Z,20.40
2023-02-15T13:47:05.808Z,19.70
2023-02-15T13:50:28.259Z,19.53
2023-02-15T13:53:34.443Z,21.17
2023-02-15T13:57:29.517Z,20.70
2023-02-15T14:00:52.981Z,20.37
2023-02-15T14:08:10.749Z,16.17
2023-02-15T14:11:19.588Z,14.93
2023-02-15T14:14:48.361Z,15.50
2023-02-15T14:17:47.167Z,15.00
2023-02-15T14:20:57.583Z,12.40
2023-02-15T14:24:10.377Z,14.07
2023-02-15T14:26:50.050Z,14.00
2023-02-15T14:29:30.208Z,15.00
2023-02-15T14:32:06.010Z,16.93
2023-02-15T14:34:59.253Z,16.23
2023-02-15T14:37:51.688Z,14.83
2023-02-15T14:40:48.174Z,13.67
2023-02-15T14:43:28.974Z,15.20
2023-02-15T14:46:24.410Z,18.63
2023-02-15T14:48:56.234Z,18.20
2023-02-15T14:51:52.181Z,17.60
2023-02-15T14:54:21.845Z,16.27
2023-02-15T14:57:08.800Z,15.97
2023-02-15T14:59:58.147Z,15.90
2023-02-15T15:02:49.789Z,16.80
2023-02-15T15:05:52.204Z,16.60
2023-02-15T15:08:37.357Z,16.37
2023-02-15T15:11:42.631Z,16.60
2023-02-15T15:14:16.467Z,14.33
2023-02-15T15:16:52.240Z,14.67
2023-02-15T15:19:52.182Z,13.50
2023-02-15T15:22:23.345Z,12.63
2023-02-15T15:25:38.471Z,12.90
2023-02-15T15:28:07.579Z,15.23
2023-02-15T15:30:34.486Z,15.07
2023-02-15T15:33:39.049Z,17.00
2023-02-15T15:36:49.749Z,16.23
2023-02-15T15:40:30.607Z,14.83
2023-02-15T15:43:34.748Z,16.07
2023-02-15T15:46:40.499Z,17.97
2023-02-15T15:49:16.430Z,17.50
2023-02-15T15:51:45.597Z,17.00
2023-02-15T15:54:25.126Z,17.07
2023-02-15T15:57:05.012Z,15.90
2023-02-15T15:59:35.358Z,16.20
2023-02-15T16:02:08.773Z,17.93
2023-02-15T16:04:36.503Z,16.07
2023-02-15T16:07:19.497Z,18.17
2023-02-15T16:10:06.960Z,16.13
2023-02-15T16:12:37.032Z,17.40
2023-02-15T16:15:18.778Z,19.30
2023-02-15T16:17:51.000Z,17.60
2023-02-15T16:20:22.827Z,17.67
2023-02-15T16:23:14.666Z,19.43
2023-02-15T16:26:06.591Z,17.60
2023-02-15T16:28:33.566Z,19.67
2023-02-15T16:31:15.757Z,17.33
2023-02-15T16:33:45.705Z,18.20
2023-02-15T16:36:23.724Z,18.00
2023-02-15T16:38:50.515Z,18.00
2023-02-15T16:41:24.049Z,17.23
2023-02-15T16:43:53.121Z,17.30
2023-02-15T16:46:32.507Z,17.43
2023-02-15T16:49:05.901Z,17.37
2023-02-15T16:51:35.262Z,20.40
2023-02-15T16:54:09.224Z,17.77
2023-02-15T16:56:37.430Z,16.57
2023-02-15T16:59:04.540Z,20.03
2023-02-15T17:01:33.718Z,20.13
2023-02-15T17:04:35.459Z,18.00
2023-02-15T17:07:19.188Z,18.03
2023-02-15T17:09:57.637Z,18.37
2023-02-15T17:12:49.684Z,18.07
2023-02-15T17:15:36.010Z,21.43
2023-02-15T17:18:18.806Z,20.47
2023-02-15T17:20:47.841Z,20.37
2023-02-15T17:23:42.811Z,21.63
2023-02-15T17:26:25.491Z,20.20
2023-02-15T17:28:57.242Z,19.07
2023-02-15T17:31:32.217Z,20.07
2023-02-15T17:34:01.011Z,18.17
2023-02-15T17:36:30.759Z,20.20
2023-02-15T17:39:24.295Z,18.50
2023-02-15T17:41:53.888Z,16.33
2023-02-15T17:44:21.007Z,18.20
2023-02-15T17:46:47.916Z,14.30
2023-02-15T17:49:26.036Z,14.57
2023-02-15T17:51:53.125Z,13.07
2023-02-15T17:54:38.374Z,13.47
2023-02-15T17:57:14.266Z,16.87
2023-02-15T18:00:01.078Z,13.00
2023-02-15T18:02:53.885Z,13.60
2023-02-15T18:05:39.526Z,12.77
2023-02-15T18:08:34.483Z,15.07
2023-02-15T18:11:20.801Z,16.20
2023-02-15T18:13:48.525Z,14.77
2023-02-15T18:16:25.089Z,27.40
2023-02-15T18:18:53.534Z,28.17
2023-02-15T18:21:20.446Z,16.33
2023-02-15T18:23:47.373Z,16.70
2023-02-15T18:26:21.376Z,16.60
2023-02-15T18:28:49.234Z,16.33
2023-02-15T18:31:16.462Z,16.67
2023-02-15T18:33:49.394Z,18.17
2023-02-15T18:36:32.575Z,17.07
2023-02-15T18:39:04.764Z,18.70
2023-02-15T18:41:34.010Z,21.17
2023-02-15T18:44:00.925Z,22.40
2023-02-15T18:46:27.882Z,22.27
2023-02-15T18:48:54.815Z,23.07
2023-02-15T18:51:23.878Z,21.00
2023-02-15T18:53:53.683Z,20.70
2023-02-15T18:56:22.960Z,19.50
2023-02-15T18:58:49.950Z,16.80
2023-02-15T19:01:21.606Z,23.70
2023-02-15T19:03:51.120Z,15.83
2023-02-15T19:06:23.084Z,22.83
2023-02-15T19:08:52.357Z,18.93
2023-02-15T19:11:25.423Z,18.77
2023-02-15T19:13:53.403Z,18.57
2023-02-15T19:16:32.221Z,17.00
2023-02-15T19:19:00.031Z,21.17
2023-02-15T19:21:30.813Z,20.93
2023-02-15T19:24:06.195Z,18.30
2023-02-15T19:26:45.317Z,17.17
2023-02-15T19:29:16.216Z,19.63
2023-02-15T19:31:43.548Z,17.20
2023-02-15T19:34:16.794Z,24.13
2023-02-15T19:36:50.373Z,19.33
2023-02-15T19:39:37.339Z,17.73
2023-02-15T19:42:04.835Z,20.40
2023-02-15T19:44:31.812Z,20.83
2023-02-15T19:46:58.870Z,22.73
2023-02-15T19:49:25.800Z,21.30
2023-02-15T19:51:53.233Z,22.80
2023-02-15T19:54:28.674Z,23.00
2023-02-15T19:56:56.248Z,22.63
2023-02-15T19:59:32.951Z,22.57
2023-02-15T20:02:00.334Z,19.37
2023-02-15T20:04:27.592Z,23.50
2023-02-15T20:07:01.023Z,21.37
2023-02-15T20:09:40.782Z,21.47
2023-02-15T20:12:25.398Z,22.07
2023-02-15T20:14:53.310Z,20.20
2023-02-15T20:17:20.306Z,22.43
2023-02-15T20:19:47.199Z,20.80
2023-02-15T20:22:26.564Z,22.10
2023-02-15T20:24:57.206Z,20.50
2023-02-15T20:27:24.320Z,21.27
2023-02-15T20:29:51.529Z,20.00
2023-02-15T20:32:18.676Z,22.53
2023-02-15T20:34:45.669Z,22.03
2023-02-15T20:37:34.018Z,22.80
2023-02-15T20:40:01.132Z,20.77
2023-02-15T20:42:28.128Z,20.60
2023-02-15T20:44:55.174Z,21.57
2023-02-15T20:47:22.108Z,21.47
2023-02-15T20:49:49.052Z,20.80
2023-02-15T20:52:20.371Z,22.10
2023-02-15T20:54:47.390Z,19.43
2023-02-15T20:57:14.717Z,19.70
2023-02-15T20:59:42.909Z,22.07
2023-02-15T21:02:19.113Z,20.70
2023-02-15T21:04:46.526Z,18.43
2023-02-15T21:07:19.575Z,19.10
2023-02-15T21:09:47.061Z,19.47
2023-02-15T21:12:19.925Z,22.30
2023-02-15T21:14:47.037Z,21.00
2023-02-15T21:17:16.322Z,19.73
2023-02-15T21:19:43.973Z,18.90
2023-02-15T21:22:14.301Z,20.00
2023-02-15T21:24:50.343Z,19.67
2023-02-15T21:27:17.826Z,20.00
2023-02-15T21:29:44.695Z,21.20
2023-02-15T21:32:11.832Z,21.40
2023-02-15T21:34:39.950Z,20.60
2023-02-15T21:37:32.472Z,22.40
2023-02-15T21:39:59.443Z,19.30
2023-02-15T21:42:47.031Z,17.43
2023-02-15T21:45:37.416Z,18.50
2023-02-15T21:48:04.776Z,18.53
2023-02-15T21:50:50.700Z,18.90
2023-02-15T21:53:27.471Z,18.30
2023-02-15T21:55:57.166Z,19.70
2023-02-15T21:58:27.268Z,17.90
2023-02-15T22:00:56.237Z,20.47
2023-02-15T22:03:25.933Z,19.50
2023-02-15T22:05:53.109Z,19.23
2023-02-15T22:08:20.451Z,19.13
2023-02-15T22:10:48.271Z,19.00
2023-02-15T22:13:35.003Z,19.00
2023-02-15T22:16:03.226Z,19.70
2023-02-15T22:18:34.339Z,19.57
2023-02-15T22:21:02.964Z,19.13
2023-02-15T22:23:30.279Z,22.43
2023-02-15T22:26:05.911Z,20.93
2023-02-15T22:28:37.640Z,19.83
2023-02-15T22:31:09.447Z,21.03
2023-02-15T22:33:36.396Z,20.40
2023-02-15T22:36:03.630Z,20.73
2023-02-15T22:38:30.527Z,21.87
2023-02-15T22:41:03.962Z,21.50
2023-02-15T22:43:40.642Z,19.83
2023-02-15T22:46:17.816Z,23.17
2023-02-15T22:48:48.214Z,21.43
2023-02-15T22:51:18.814Z,21.97
2023-02-15T22:53:45.978Z,21.67
2023-02-15T22:56:50.444Z,21.93
2023-02-15T22:59:28.808Z,22.27
2023-02-15T23:01:57.444Z,21.17
2023-02-15T23:04:27.823Z,20.80
2023-02-15T23:06:58.228Z,20.40
2023-02-15T23:09:25.144Z,23.87
2023-02-15T23:11:53.045Z,20.57
2023-02-15T23:14:29.142Z,22.73
2023-02-15T23:16:56.064Z,22.03
2023-02-15T23:19:23.083Z,21.10
2023-02-15T23:21:50.344Z,22.57
2023-02-15T23:24:29.458Z,21.37
2023-02-15T23:27:19.997Z,20.67
2023-02-15T23:29:46.939Z,21.67
2023-02-15T23:32:14.874Z,20.47
2023-02-15T23:34:43.169Z,20.33
2023-02-15T23:37:14.600Z,21.07
2023-02-15T23:39:59.822Z,20.23
2023-02-15T23:42:30.250Z,19.83
2023-02-15T23:44:57.317Z,19.40
2023-02-15T23:47:49.270Z,18.77
2023-02-15T23:50:26.964Z,17.43
2023-02-15T23:52:55.329Z,18.20
2023-02-15T23:55:23.661Z,19.57
2023-02-15T23:57:50.672Z,17.07
